Date,TemperatureHighF,TemperatureAvgF,TemperatureLowF,DewpointHighF,DewpointAvgF,DewpointLowF,HumidityHigh,HumidityAvg,HumidityLow,PressureMaxIn,PressureMinIn,WindSpeedMaxMPH,WindSpeedAvgMPH,GustSpeedMaxMPH,PrecipitationSumIn
2013-2-1,66.6,56.4,46.9,45.3,35.7,19.9,77,49,19,30.41,30.26,17,5,17,0.00
2013-2-2,67.1,52.8,45.9,45.5,38.6,31.8,78,60,27,30.36,30.31,11,4,11,0.00
2013-2-4,70.5,59.2,45.9,55.2,42.0,13.5,99,59,14,30.19,30.09,12,3,12,0.00
2013-2-5,78.8,59.6,43.9,55.6,47.6,37.0,99,71,30,30.14,30.04,11,2,11,0.00
2013-2-6,80.2,67.8,57.6,62.2,58.7,54.1,96,75,45,30.14,30.05,12,-1,12,0.00
2013-2-7,81.3,69.9,61.9,68.5,63.9,57.4,99,83,47,30.09,29.88,16,5,16,0.12
2013-2-8,74.5,66.3,59.5,67.8,62.3,57.4,99,87,65,30.12,29.93,15,6,15,0.01
2013-2-9,77.2,64.0,55.4,59.5,55.5,47.1,99,76,36,30.24,30.10,15,4,15,0.00
2013-2-10,81.7,70.0,61.2,63.0,58.9,54.9,90,70,44,30.27,30.15,21,6,21,0.00
2013-2-11,82.4,71.7,63.0,67.5,64.2,60.6,96,79,55,30.22,29.83,13,4,13,0.00
2013-2-12,87.1,73.5,67.8,76.1,69.3,67.1,99,88,66,30.12,29.77,15,5,15,0.00
2013-2-13,82.4,71.3,59.2,73.2,68.6,55.9,99,92,72,30.02,29.86,22,5,22,0.69
2013-2-14,65.5,61.2,59.0,62.8,60.1,57.9,99,96,85,30.09,29.96,17,2,17,0.28
2013-2-15,68.2,59.0,53.2,59.2,54.6,49.6,99,86,60,30.13,30.00,11,3,11,0.02
2013-2-16,70.0,58.4,49.6,54.3,45.8,30.6,95,65,39,30.18,29.99,26,8,26,0.00
2013-2-17,85.6,47.2,36.0,33.8,24.4,12.2,88,43,25,30.40,29.96,24,7,24,0.00
2013-2-18,72.0,52.4,35.6,50.7,34.9,13.3,94,57,18,30.41,29.96,17,4,17,0.00
2013-2-19,78.3,63.7,48.6,62.8,55.4,47.5,99,78,44,30.26,30.12,15,3,15,0.00
2013-2-20,91.6,64.9,57.7,64.2,60.2,53.6,99,86,58,30.16,30.05,13,3,13,0.00
2013-2-21,84.6,68.7,57.0,65.3,61.0,53.2,98,79,46,30.14,30.00,12,3,12,0.00
2013-2-22,83.8,72.3,61.3,69.6,66.3,61.0,99,84,57,30.09,30.00,15,4,15,0.00
2013-2-23,81.9,72.9,68.9,72.7,70.5,63.1,99,93,76,30.09,29.91,17,5,17,0.00
2013-2-24,91.0,71.7,68.2,72.5,69.5,67.8,99,93,72,30.04,29.89,15,3,15,0.00
2013-2-25,83.8,74.8,68.7,72.7,69.8,66.4,99,86,61,30.04,29.78,15,4,15,0.00
2013-2-26,77.4,72.0,67.5,72.9,68.0,60.8,99,88,65,29.92,29.71,19,5,19,0.37
2013-2-27,91.9,65.6,60.3,62.2,56.5,52.3,84,73,54,30.04,29.90,15,6,15,0.00
2013-2-28,73.9,65.6,60.1,58.1,52.4,-14.6,79,63,47,30.04,29.94,15,5,15,0.00